createdAt,value
2018-05-03T00:00:56.520Z,11.26
2018-05-03T00:03:59.895Z,11.26
2018-05-03T00:07:04.011Z,11.26
2018-05-03T00:10:08.114Z,11.24
2018-05-03T00:13:12.227Z,11.22
2018-05-03T00:16:16.357Z,11.17
2018-05-03T00:19:19.700Z,11.20
2018-05-03T00:22:23.054Z,11.18
2018-05-03T00:25:26.418Z,11.15
2018-05-03T00:28:29.760Z,11.12
2018-05-03T00:31:33.111Z,11.10
2018-05-03T00:34:36.463Z,11.06
2018-05-03T00:37:39.803Z,11.03
2018-05-03T00:40:43.133Z,11.01
2018-05-03T00:43:47.214Z,10.96
2018-05-03T00:46:50.525Z,10.93
2018-05-03T00:49:53.847Z,10.90
2018-05-03T00:52:57.149Z,10.88
2018-05-03T00:56:00.452Z,10.87
2018-05-03T00:59:03.787Z,10.86
2018-05-03T01:02:07.096Z,10.85
2018-05-03T01:05:10.425Z,10.91
2018-05-03T01:08:14.493Z,11.01
2018-05-03T01:11:17.821Z,10.95
2018-05-03T01:14:21.893Z,10.88
2018-05-03T01:17:25.212Z,10.89
2018-05-03T01:20:28.519Z,10.83
2018-05-03T01:23:31.836Z,10.81
2018-05-03T01:26:35.909Z,10.80
2018-05-03T01:29:39.222Z,10.80
2018-05-03T01:32:42.534Z,10.77
2018-05-03T01:36:04.373Z,10.68
2018-05-03T01:39:08.458Z,10.62
2018-05-03T01:42:11.785Z,10.58
2018-05-03T01:45:15.853Z,10.53
2018-05-03T01:48:19.161Z,10.49
2018-05-03T01:51:22.473Z,10.46
2018-05-03T01:54:25.777Z,10.40
2018-05-03T01:57:29.091Z,10.36
2018-05-03T02:00:32.429Z,10.34
2018-05-03T02:03:35.742Z,10.31
2018-05-03T02:06:39.086Z,10.27
2018-05-03T02:09:42.384Z,10.23
2018-05-03T02:12:45.712Z,10.22
2018-05-03T02:15:49.014Z,10.22
2018-05-03T02:18:52.340Z,10.19
2018-05-03T02:21:55.642Z,10.18
2018-05-03T02:24:59.729Z,10.17
2018-05-03T02:28:03.062Z,10.16
2018-05-03T02:31:06.377Z,10.15
2018-05-03T02:34:09.710Z,10.14
2018-05-03T02:37:13.017Z,10.15
2018-05-03T02:40:16.354Z,10.14
2018-05-03T02:43:20.421Z,10.15
2018-05-03T02:46:23.749Z,10.15
2018-05-03T02:49:27.048Z,10.14
2018-05-03T02:52:30.365Z,10.12
2018-05-03T02:55:33.693Z,10.13
2018-05-03T02:58:54.649Z,10.13
2018-05-03T03:02:03.440Z,10.12
2018-05-03T03:05:30.193Z,10.15
2018-05-03T03:13:28.219Z,9.96
2018-05-03T03:16:54.873Z,9.94
2018-05-03T03:24:20.656Z,9.90
2018-05-03T03:27:47.387Z,9.89
2018-05-03T03:31:14.153Z,9.90
2018-05-03T03:34:32.364Z,9.96
2018-05-03T03:37:54.195Z,10.05
2018-05-03T03:41:15.989Z,10.26
2018-05-03T03:44:36.966Z,10.32
2018-05-03T03:47:40.277Z,10.39
2018-05-03T03:50:43.588Z,10.45
2018-05-03T03:53:46.906Z,10.50
2018-05-03T03:56:50.210Z,10.58
2018-05-03T03:59:53.542Z,10.66
2018-05-03T04:02:56.836Z,10.77
2018-05-03T04:06:00.153Z,10.79
2018-05-03T04:09:03.459Z,10.83
2018-05-03T04:12:06.773Z,10.85
2018-05-03T04:15:10.085Z,10.85
2018-05-03T04:18:31.115Z,10.87
2018-05-03T04:21:52.725Z,10.86
2018-05-03T04:25:13.766Z,10.74
2018-05-03T04:28:17.075Z,10.51
2018-05-03T04:31:20.390Z,10.36
2018-05-03T04:34:23.694Z,10.19
2018-05-03T04:37:27.033Z,10.09
2018-05-03T04:40:31.113Z,10.02
2018-05-03T04:43:34.428Z,9.90
2018-05-03T04:46:37.725Z,9.86
2018-05-03T04:49:41.050Z,9.76
2018-05-03T04:52:45.121Z,9.74
2018-05-03T04:55:48.446Z,9.68
2018-05-03T04:58:52.534Z,9.64
2018-05-03T05:01:55.836Z,9.60
2018-05-03T05:04:59.149Z,9.53
2018-05-03T05:08:02.450Z,9.52
2018-05-03T05:11:06.538Z,9.45
2018-05-03T05:14:09.845Z,9.46
2018-05-03T05:17:13.173Z,9.45
2018-05-03T05:20:16.481Z,9.42
2018-05-03T05:23:19.807Z,9.43
2018-05-03T05:26:23.114Z,9.33
2018-05-03T05:29:26.420Z,9.25
2018-05-03T05:32:29.721Z,9.16
2018-05-03T05:35:33.032Z,9.10
2018-05-03T05:38:36.390Z,9.10
2018-05-03T05:41:39.681Z,9.06
2018-05-03T05:44:42.977Z,9.08
2018-05-03T05:47:46.317Z,9.09
2018-05-03T05:50:50.392Z,9.09
2018-05-03T05:53:53.696Z,9.07
2018-05-03T05:56:56.993Z,9.02
2018-05-03T06:00:00.301Z,9.07
2018-05-03T06:03:03.606Z,8.98
2018-05-03T06:06:06.926Z,8.98
2018-05-03T06:09:10.997Z,8.88
2018-05-03T06:12:14.364Z,8.81
2018-05-03T06:15:18.405Z,8.86
2018-05-03T06:18:21.729Z,8.89
2018-05-03T06:21:25.025Z,9.02
2018-05-03T06:24:28.348Z,9.09
2018-05-03T06:27:31.645Z,9.14
2018-05-03T06:30:34.974Z,9.24
2018-05-03T06:33:38.270Z,9.29
2018-05-03T06:36:41.582Z,9.49
2018-05-03T06:39:44.877Z,9.68
2018-05-03T06:42:48.196Z,9.72
2018-05-03T06:45:51.489Z,9.80
2018-05-03T06:48:54.804Z,9.90
2018-05-03T06:51:58.860Z,9.94
2018-05-03T06:55:02.165Z,9.97
2018-05-03T06:58:05.494Z,10.01
2018-05-03T07:01:08.787Z,9.99
2018-05-03T07:04:12.223Z,10.01
2018-05-03T07:07:15.425Z,10.04
2018-05-03T07:10:18.736Z,9.97
2018-05-03T07:13:22.036Z,10.04
2018-05-03T07:16:25.493Z,10.19
2018-05-03T07:19:28.669Z,10.32
2018-05-03T07:22:31.989Z,10.44
2018-05-03T07:25:36.062Z,10.54
2018-05-03T07:28:39.373Z,10.70
2018-05-03T07:31:42.689Z,10.80
2018-05-03T07:34:46.823Z,10.81
2018-05-03T07:37:50.096Z,10.92
2018-05-03T07:40:53.510Z,11.11
2018-05-03T07:43:56.741Z,11.19
2018-05-03T07:47:00.060Z,11.12
2018-05-03T07:50:03.361Z,11.15
2018-05-03T07:53:06.665Z,11.28
2018-05-03T07:56:09.970Z,11.46
2018-05-03T07:59:13.300Z,11.39
2018-05-03T08:02:16.605Z,11.49
2018-05-03T08:05:19.945Z,11.68
2018-05-03T08:08:23.249Z,11.79
2018-05-03T08:11:26.585Z,11.89
2018-05-03T08:14:29.884Z,11.94
2018-05-03T08:17:33.201Z,12.01
2018-05-03T08:20:36.497Z,11.94
2018-05-03T08:23:39.820Z,12.00
2018-05-03T08:26:43.135Z,12.09
2018-05-03T08:29:46.464Z,12.17
2018-05-03T08:32:49.760Z,12.16
2018-05-03T08:35:53.085Z,12.26
2018-05-03T08:38:56.385Z,12.49
2018-05-03T08:41:59.708Z,12.70
2018-05-03T08:45:03.017Z,12.78
2018-05-03T08:48:06.353Z,12.90
2018-05-03T08:51:09.661Z,12.95
2018-05-03T08:54:12.989Z,12.99
2018-05-03T08:57:16.285Z,12.99
2018-05-03T09:00:19.609Z,13.13
2018-05-03T09:03:23.747Z,13.33
2018-05-03T09:06:27.018Z,13.48
2018-05-03T09:09:31.084Z,13.48
2018-05-03T09:12:34.420Z,13.40
2018-05-03T09:15:37.733Z,13.59
2018-05-03T09:18:41.834Z,13.67
2018-05-03T09:21:45.160Z,13.75
2018-05-03T09:24:48.485Z,13.77
2018-05-03T09:27:51.793Z,13.70
2018-05-03T09:30:55.113Z,13.82
2018-05-03T09:33:58.421Z,13.77
2018-05-03T09:37:01.761Z,13.80
2018-05-03T09:40:05.076Z,13.85
2018-05-03T09:43:08.377Z,13.73
2018-05-03T09:46:11.673Z,13.94
2018-05-03T09:49:14.996Z,14.13
2018-05-03T09:52:18.301Z,14.10
2018-05-03T09:55:22.384Z,14.20
2018-05-03T09:58:25.686Z,14.25
2018-05-03T10:01:28.998Z,14.20
2018-05-03T10:04:32.308Z,14.01
2018-05-03T10:07:36.410Z,14.01
2018-05-03T10:10:39.718Z,14.06
2018-05-03T10:13:43.813Z,14.11
2018-05-03T10:16:47.146Z,14.08
2018-05-03T10:19:50.449Z,14.11
2018-05-03T10:22:53.761Z,14.23
2018-05-03T10:25:57.074Z,14.30
2018-05-03T10:29:00.514Z,14.46
2018-05-03T10:32:04.592Z,14.45
2018-05-03T10:35:07.904Z,14.30
2018-05-03T10:38:11.225Z,14.17
2018-05-03T10:41:14.560Z,14.24
2018-05-03T10:44:17.876Z,14.40
2018-05-03T10:47:21.197Z,14.54
2018-05-03T10:50:24.506Z,14.55
2018-05-03T10:53:27.837Z,14.58
2018-05-03T10:56:31.160Z,14.54
2018-05-03T10:59:34.481Z,14.70
2018-05-03T11:02:37.789Z,14.83
2018-05-03T11:05:41.113Z,14.75
2018-05-03T11:08:44.417Z,14.63
2018-05-03T11:11:47.738Z,14.51
2018-05-03T11:14:51.037Z,14.64
2018-05-03T11:17:54.353Z,14.66
2018-05-03T11:20:57.657Z,14.66
2018-05-03T11:24:00.977Z,14.72
2018-05-03T11:27:05.046Z,14.59
2018-05-03T11:30:08.364Z,14.44
2018-05-03T11:33:11.662Z,14.27
2018-05-03T11:36:14.984Z,14.24
2018-05-03T11:39:19.050Z,14.45
2018-05-03T11:42:22.359Z,14.51
2018-05-03T11:45:25.669Z,14.36
2018-05-03T11:48:28.994Z,14.24
2018-05-03T11:51:33.059Z,14.49
2018-05-03T11:54:36.394Z,14.75
2018-05-03T11:57:40.460Z,14.66
2018-05-03T12:00:43.777Z,14.55
2018-05-03T12:03:47.080Z,14.62
2018-05-03T12:06:50.400Z,14.84
2018-05-03T12:09:53.714Z,15.03
2018-05-03T12:12:57.037Z,15.12
2018-05-03T12:16:00.336Z,14.86
2018-05-03T12:19:03.649Z,14.63
2018-05-03T12:22:06.953Z,14.50
2018-05-03T12:25:10.281Z,14.37
2018-05-03T12:28:14.344Z,14.05
2018-05-03T12:31:17.666Z,14.01
2018-05-03T12:34:20.957Z,14.25
2018-05-03T12:37:24.272Z,14.43
2018-05-03T12:40:28.342Z,14.40
2018-05-03T12:43:31.659Z,14.42
2018-05-03T12:46:34.967Z,14.22
2018-05-03T12:49:38.281Z,14.02
2018-05-03T12:52:42.353Z,13.78
2018-05-03T12:55:45.668Z,13.81
2018-05-03T12:58:48.968Z,13.83
2018-05-03T13:01:52.286Z,13.91
2018-05-03T13:04:56.361Z,13.96
2018-05-03T13:07:59.685Z,13.96
2018-05-03T13:11:02.980Z,14.09
2018-05-03T13:14:06.329Z,14.26
2018-05-03T13:17:09.633Z,14.38
2018-05-03T13:20:12.952Z,14.44
2018-05-03T13:23:16.257Z,14.42
2018-05-03T13:26:19.575Z,14.36
2018-05-03T13:29:23.637Z,14.13
2018-05-03T13:32:26.969Z,14.16
2018-05-03T13:35:30.272Z,14.14
2018-05-03T13:38:34.364Z,14.31
2018-05-03T13:41:37.657Z,14.33
2018-05-03T13:44:40.973Z,14.32
2018-05-03T13:47:44.349Z,14.34
2018-05-03T13:50:48.463Z,14.42
2018-05-03T13:53:51.766Z,14.59
2018-05-03T13:56:55.091Z,14.69
2018-05-03T13:59:59.160Z,14.72
2018-05-03T14:03:02.484Z,14.75
2018-05-03T14:06:05.781Z,14.61
2018-05-03T14:09:09.102Z,14.45
2018-05-03T14:12:13.169Z,14.37
2018-05-03T14:15:16.500Z,14.29
2018-05-03T14:18:19.808Z,14.25
2018-05-03T14:21:23.890Z,14.41
2018-05-03T14:24:27.193Z,14.35
2018-05-03T14:27:30.524Z,14.29
2018-05-03T14:30:34.607Z,14.22
2018-05-03T14:33:37.912Z,14.31
2018-05-03T14:36:41.240Z,14.31
2018-05-03T14:39:44.549Z,14.39
2018-05-03T14:42:47.870Z,14.46
2018-05-03T14:45:51.169Z,14.48
2018-05-03T14:48:54.492Z,14.36
2018-05-03T14:51:57.789Z,14.31
2018-05-03T14:55:01.124Z,14.34
2018-05-03T14:58:04.426Z,14.37
2018-05-03T15:01:07.764Z,14.32
2018-05-03T15:04:11.082Z,14.18
2018-05-03T15:07:15.164Z,14.10
2018-05-03T15:10:18.478Z,14.17
2018-05-03T15:13:21.951Z,14.17
2018-05-03T15:16:25.263Z,14.25
2018-05-03T15:19:28.581Z,14.24
2018-05-03T15:22:31.880Z,14.42
2018-05-03T15:25:35.202Z,14.52
2018-05-03T15:28:38.530Z,14.45
2018-05-03T15:31:41.832Z,14.38
2018-05-03T15:34:45.180Z,14.52
2018-05-03T15:37:48.544Z,14.75
2018-05-03T15:40:51.837Z,14.90
2018-05-03T15:43:55.133Z,14.78
2018-05-03T15:46:58.453Z,15.01
2018-05-03T15:50:01.799Z,15.11
2018-05-03T15:53:05.090Z,15.33
2018-05-03T15:56:08.420Z,15.37
2018-05-03T15:59:11.725Z,15.28
2018-05-03T16:02:15.058Z,15.45
2018-05-03T16:05:19.122Z,15.43
2018-05-03T16:08:22.460Z,15.43
2018-05-03T16:11:26.521Z,15.29
2018-05-03T16:14:29.844Z,14.89
2018-05-03T16:17:33.149Z,14.58
2018-05-03T16:20:36.503Z,14.18
2018-05-03T16:23:39.797Z,13.93
2018-05-03T16:26:43.110Z,13.74
2018-05-03T16:29:46.425Z,13.46
2018-05-03T16:32:49.734Z,13.30
2018-05-03T16:35:53.045Z,13.13
2018-05-03T16:38:57.137Z,13.06
2018-05-03T16:42:00.438Z,12.94
2018-05-03T16:45:03.760Z,12.95
2018-05-03T16:48:07.912Z,12.97
2018-05-03T16:51:11.165Z,12.96
2018-05-03T16:54:15.229Z,12.93
2018-05-03T16:57:18.540Z,12.79
2018-05-03T17:00:21.841Z,12.81
2018-05-03T17:03:25.165Z,12.84
2018-05-03T17:06:29.233Z,12.85
2018-05-03T17:09:32.556Z,12.81
2018-05-03T17:12:35.913Z,12.79
2018-05-03T17:15:39.222Z,12.74
2018-05-03T17:18:42.541Z,12.63
2018-05-03T17:21:45.861Z,12.61
2018-05-03T17:24:49.925Z,12.56
2018-05-03T17:27:53.295Z,12.59
2018-05-03T17:30:56.562Z,12.62
2018-05-03T17:33:59.881Z,12.57
2018-05-03T17:37:03.180Z,12.46
2018-05-03T17:40:06.502Z,12.41
2018-05-03T17:43:09.803Z,12.38
2018-05-03T17:46:13.131Z,12.40
2018-05-03T17:49:22.930Z,12.32
2018-05-03T17:52:26.315Z,12.18
2018-05-03T17:55:29.703Z,12.06
2018-05-03T17:58:33.965Z,11.94
2018-05-03T18:01:37.302Z,11.84
2018-05-03T18:04:41.424Z,11.73
2018-05-03T18:07:44.782Z,11.64
2018-05-03T18:10:48.178Z,11.56
2018-05-03T18:13:51.494Z,11.50
2018-05-03T18:16:54.794Z,11.47
2018-05-03T18:19:58.109Z,11.43
2018-05-03T18:23:02.179Z,11.36
2018-05-03T18:26:05.492Z,11.24
2018-05-03T18:29:08.821Z,11.20
2018-05-03T18:32:12.909Z,11.15
2018-05-03T18:35:16.237Z,11.09
2018-05-03T18:38:20.398Z,11.01
2018-05-03T18:41:23.699Z,10.92
2018-05-03T18:44:27.023Z,10.80
2018-05-03T18:47:30.320Z,10.75
2018-05-03T18:50:33.646Z,10.72
2018-05-03T18:53:36.968Z,10.63
2018-05-03T18:56:40.290Z,10.55
2018-05-03T18:59:43.597Z,10.50
2018-05-03T19:02:46.937Z,10.44
2018-05-03T19:05:50.241Z,10.32
2018-05-03T19:08:53.561Z,10.24
2018-05-03T19:11:56.933Z,10.18
2018-05-03T19:15:00.211Z,10.11
2018-05-03T19:18:04.345Z,10.04
2018-05-03T19:21:07.664Z,9.95
2018-05-03T19:24:10.972Z,9.87
2018-05-03T19:27:14.288Z,9.82
2018-05-03T19:30:17.596Z,9.75
2018-05-03T19:33:21.676Z,9.71
2018-05-03T19:36:24.985Z,9.65
2018-05-03T19:39:28.302Z,9.58
2018-05-03T19:42:31.600Z,9.49
2018-05-03T19:45:34.908Z,9.41
2018-05-03T19:48:38.992Z,9.36
2018-05-03T19:51:42.289Z,9.32
2018-05-03T19:54:45.612Z,9.27
2018-05-03T19:57:49.675Z,9.24
2018-05-03T20:00:52.993Z,9.20
2018-05-03T20:03:56.292Z,9.15
2018-05-03T20:06:59.721Z,9.10
2018-05-03T20:10:03.787Z,9.07
2018-05-03T20:13:07.105Z,9.03
2018-05-03T20:16:10.420Z,8.98
2018-05-03T20:19:13.753Z,8.90
2018-05-03T20:22:17.057Z,8.86
2018-05-03T20:25:20.383Z,8.81
2018-05-03T20:28:23.688Z,8.70
2018-05-03T20:31:27.022Z,8.67
2018-05-03T20:34:30.325Z,8.57
2018-05-03T20:37:33.644Z,8.48
2018-05-03T20:40:36.945Z,8.41
2018-05-03T20:43:40.268Z,8.37
2018-05-03T20:46:43.575Z,8.37
2018-05-03T20:49:46.905Z,8.37
2018-05-03T20:52:50.209Z,8.34
2018-05-03T20:55:53.529Z,8.31
2018-05-03T20:58:56.836Z,8.32
2018-05-03T21:02:00.157Z,8.33
2018-05-03T21:05:03.460Z,8.26
2018-05-03T21:08:07.561Z,8.14
2018-05-03T21:11:10.857Z,8.07
2018-05-03T21:14:14.181Z,8.00
2018-05-03T21:17:18.244Z,7.93
2018-05-03T21:20:21.569Z,7.86
2018-05-03T21:23:24.874Z,7.83
2018-05-03T21:26:28.274Z,7.82
2018-05-03T21:29:31.517Z,7.82
2018-05-03T21:32:34.837Z,7.81
2018-05-03T21:35:38.129Z,7.78
2018-05-03T21:38:41.449Z,7.77
2018-05-03T21:41:44.770Z,7.73
2018-05-03T21:44:48.853Z,7.64
2018-05-03T21:47:52.161Z,7.59
2018-05-03T21:50:55.486Z,7.55
2018-05-03T21:53:58.784Z,7.52
2018-05-03T21:57:02.121Z,7.45
2018-05-03T22:00:06.190Z,7.38
2018-05-03T22:03:10.281Z,7.33
2018-05-03T22:06:13.583Z,7.30
2018-05-03T22:09:16.920Z,7.28
2018-05-03T22:12:20.219Z,7.26
2018-05-03T22:15:23.538Z,7.24
2018-05-03T22:18:26.845Z,7.20
2018-05-03T22:21:30.187Z,7.18
2018-05-03T22:24:34.252Z,7.17
2018-05-03T22:27:37.573Z,7.12
2018-05-03T22:30:40.869Z,7.08
2018-05-03T22:33:44.197Z,7.00
2018-05-03T22:36:47.493Z,6.93
2018-05-03T22:39:50.801Z,6.91
2018-05-03T22:42:54.117Z,6.89
2018-05-03T22:45:57.422Z,6.86
2018-05-03T22:49:00.759Z,6.82
2018-05-03T22:52:04.829Z,6.78
2018-05-03T22:55:08.136Z,6.75
2018-05-03T22:58:12.037Z,6.69
2018-05-03T23:01:15.368Z,6.65
2018-05-03T23:04:18.673Z,6.61
2018-05-03T23:07:22.760Z,6.57
2018-05-03T23:10:26.061Z,6.53
2018-05-03T23:13:29.389Z,6.51
2018-05-03T23:16:33.460Z,6.47
2018-05-03T23:19:36.769Z,6.46
2018-05-03T23:22:40.090Z,6.48
2018-05-03T23:25:44.154Z,6.49
2018-05-03T23:28:47.489Z,6.45
2018-05-03T23:31:50.797Z,6.43
2018-05-03T23:34:54.108Z,6.38
2018-05-03T23:37:57.410Z,6.33
2018-05-03T23:41:00.729Z,6.31
2018-05-03T23:44:04.037Z,6.25
2018-05-03T23:47:07.384Z,6.24
2018-05-03T23:50:11.457Z,6.22
2018-05-03T23:53:14.772Z,6.18
2018-05-03T23:56:18.069Z,6.15
2018-05-03T23:59:21.481Z,6.12
